Time;durP1;ratioP1;P1;durP2;ratioP2;P2;SDS_P1;SDS_P2;PMS_P1;PMS_P2;Temp;Humidity;BMP_temperature;BMP_pressure;BME280_temperature;BME280_humidity;BME280_pressure;Samples;Min_cycle;Max_cycle;Signal;HPM_P1;HPM_P2
2022/10/20 00:02:20;;;;;;;4.03;1.10;;;;;;;9.27;59.37;102189.13;4905825;28;109448;-45
2022/10/20 00:04:46;;;;;;;1.27;1.00;;;;;;;9.25;59.41;102189.59;4907788;28;101022;-45
2022/10/20 00:07:11;;;;;;;3.43;1.50;;;;;;;9.23;59.39;102183.78;4902386;28;96881;-46
2022/10/20 00:09:36;;;;;;;1.40;1.23;;;;;;;9.23;59.49;102180.25;4907361;28;96874;-47
2022/10/20 00:12:02;;;;;;;2.73;0.90;;;;;;;9.17;59.52;102173.81;4904757;28;97927;-44
2022/10/20 00:14:27;;;;;;;1.93;1.83;;;;;;;9.15;59.50;102168.00;4908311;28;97224;-49
2022/10/20 00:16:52;;;;;;;4.03;1.20;;;;;;;9.12;59.58;102164.16;4907787;28;96953;-45
2022/10/20 00:19:18;;;;;;;4.00;1.70;;;;;;;9.09;59.58;102159.53;4910764;28;97095;-46
2022/10/20 00:21:43;;;;;;;1.10;1.00;;;;;;;9.08;59.62;102158.03;4906532;28;115118;-46
2022/10/20 00:24:09;;;;;;;5.80;1.47;;;;;;;9.08;59.49;102152.53;4907234;28;97133;-47
2022/10/20 00:26:34;;;;;;;2.80;1.40;;;;;;;9.02;59.59;102146.06;4906117;28;104960;-46
2022/10/20 00:29:01;;;;;;;1.23;1.17;;;;;;;8.98;59.71;102137.94;4909252;28;97292;-46
2022/10/20 00:31:26;;;;;;;2.80;1.30;;;;;;;8.96;59.74;102131.38;4904773;28;96835;-47
2022/10/20 00:33:52;;;;;;;5.27;1.40;;;;;;;8.92;59.84;102130.72;4907259;28;96972;-44
2022/10/20 00:36:19;;;;;;;6.10;1.70;;;;;;;8.86;59.63;102113.31;4906836;28;96864;-46
2022/10/20 00:38:45;;;;;;;1.30;1.20;;;;;;;8.84;59.84;102119.25;4906495;28;96912;-44
2022/10/20 00:41:19;;;;;;;1.20;1.10;;;;;;;8.84;60.06;102102.78;4905577;28;97121;-44
2022/10/20 00:43:52;;;;;;;1.57;1.07;;;;;;;8.79;59.71;102100.59;4901616;28;97917;-44
2022/10/20 00:46:23;;;;;;;2.50;1.37;;;;;;;8.80;59.97;102091.13;4903200;28;96916;-45
2022/10/20 00:48:57;;;;;;;1.70;1.13;;;;;;;8.79;59.96;102075.91;4907092;28;97092;-46
2022/10/20 00:51:26;;;;;;;1.07;1.00;;;;;;;8.76;59.89;102078.75;4904921;28;97609;-46
2022/10/20 00:53:58;;;;;;;1.30;1.20;;;;;;;8.75;60.01;102075.25;4907694;28;98966;-46
2022/10/20 00:56:24;;;;;;;1.80;0.93;;;;;;;8.69;60.06;102070.78;4905021;28;96980;-45
2022/10/20 00:58:50;;;;;;;1.37;1.27;;;;;;;8.72;59.91;102084.38;4906616;28;96760;-45
2022/10/20 01:01:15;;;;;;;1.10;1.10;;;;;;;8.70;59.95;102081.31;4907087;28;97462;-45
2022/10/20 01:03:51;;;;;;;4.20;1.40;;;;;;;8.68;60.52;102083.72;4904709;28;97265;-45
2022/10/20 01:06:20;;;;;;;3.80;1.00;;;;;;;8.68;60.11;102080.97;4905628;28;97605;-44
2022/10/20 01:08:45;;;;;;;3.23;1.23;;;;;;;8.68;59.95;102074.72;4905651;28;97678;-45
2022/10/20 01:11:26;;;;;;;2.23;1.20;;;;;;;8.65;60.06;102079.09;4908222;28;98441;-45
2022/10/20 01:14:29;;;;;;;2.80;1.30;;;;;;;8.65;60.78;102072.88;4901432;28;103238;-45
2022/10/20 01:17:35;;;;;;;0.80;0.80;;;;;;;8.62;61.00;102073.75;4905996;28;97271;-46
2022/10/20 01:20:14;;;;;;;1.80;1.43;;;;;;;8.58;60.26;102073.88;4905473;28;97062;-49
2022/10/20 01:23:00;;;;;;;1.60;1.23;;;;;;;8.56;60.82;102073.53;4906542;28;96888;-44
2022/10/20 01:25:49;;;;;;;8.03;1.47;;;;;;;8.52;60.82;102050.22;4907034;28;97410;-44
2022/10/20 01:28:26;;;;;;;4.30;1.60;;;;;;;8.58;60.56;102057.44;4907748;28;97360;-47
2022/10/20 01:30:57;;;;;;;3.20;1.67;;;;;;;8.54;60.44;102040.31;4907894;28;96917;-45
2022/10/20 01:33:43;;;;;;;1.10;1.00;;;;;;;8.56;61.01;102040.63;4907357;28;97042;-47
2022/10/20 01:36:32;;;;;;;3.07;1.33;;;;;;;8.53;60.56;102038.00;4908209;28;102860;-47
2022/10/20 01:39:06;;;;;;;1.87;1.17;;;;;;;8.51;60.62;102032.97;4901122;28;97321;-47
2022/10/20 01:41:41;;;;;;;1.83;1.17;;;;;;;8.49;60.71;102024.44;4906224;28;97352;-45
2022/10/20 01:44:10;;;;;;;1.10;1.00;;;;;;;8.48;60.62;102024.84;4908992;28;97738;-45
2022/10/20 01:46:39;;;;;;;1.40;1.20;;;;;;;8.49;60.57;102020.91;4907318;28;97191;-45
2022/10/20 01:49:06;;;;;;;1.43;0.87;;;;;;;8.49;60.25;102020.91;4908184;28;97407;-48
2022/10/20 01:51:32;;;;;;;1.67;1.00;;;;;;;8.49;60.51;102018.16;4909695;28;96976;-45
2022/10/20 01:53:57;;;;;;;2.97;1.10;;;;;;;8.50;60.45;102009.50;4908386;28;97034;-45
2022/10/20 01:56:50;;;;;;;2.07;1.30;;;;;;;8.51;60.69;102008.28;4908358;28;97242;-47
2022/10/20 01:59:41;;;;;;;1.33;1.10;;;;;;;8.51;60.89;102007.53;4909991;28;97275;-44
2022/10/20 02:02:30;;;;;;;2.03;0.97;;;;;;;8.49;61.10;102005.22;4909721;28;97267;-47
2022/10/20 02:05:17;;;;;;;2.00;1.00;;;;;;;8.49;61.19;102007.97;4906783;28;100620;-46
2022/10/20 02:07:42;;;;;;;5.23;1.63;;;;;;;8.50;60.87;102016.94;4904736;28;101769;-44
2022/10/20 02:10:22;;;;;;;2.43;1.20;;;;;;;8.52;61.09;102018.03;4908867;28;96944;-46
2022/10/20 02:12:55;;;;;;;0.70;0.70;;;;;;;8.54;60.98;102004.66;4908464;28;97665;-48
2022/10/20 02:15:24;;;;;;;2.33;0.97;;;;;;;8.54;60.90;102006.66;4907560;28;96822;-45
2022/10/20 02:17:56;;;;;;;1.13;1.00;;;;;;;8.58;60.79;102002.56;4910233;28;97329;-47
2022/10/20 02:20:22;;;;;;;1.37;1.00;;;;;;;8.62;60.83;102008.69;4907687;28;97132;-45
2022/10/20 02:22:48;;;;;;;2.93;1.13;;;;;;;8.67;61.14;102016.31;4911885;28;97088;-45
2022/10/20 02:25:13;;;;;;;5.77;1.53;;;;;;;8.70;60.85;102004.47;4908055;28;97673;-46
2022/10/20 02:27:45;;;;;;;1.83;1.17;;;;;;;8.74;60.93;102015.31;4908504;28;97326;-44
2022/10/20 02:30:14;;;;;;;1.50;1.40;;;;;;;8.77;60.77;102009.72;4910906;28;97310;-47
2022/10/20 02:32:40;;;;;;;6.80;1.27;;;;;;;8.81;60.80;102009.56;4903985;28;96944;-45
2022/10/20 02:35:12;;;;;;;16.90;1.40;;;;;;;8.84;60.70;102005.94;4903617;28;97195;-45
2022/10/20 02:37:37;;;;;;;1.40;1.10;;;;;;;8.85;60.79;102008.25;4905942;28;97434;-46
2022/10/20 02:40:03;;;;;;;1.00;1.00;;;;;;;8.86;60.62;102001.56;4908198;28;97035;-45
2022/10/20 02:42:28;;;;;;;1.20;1.20;;;;;;;8.87;60.73;101997.59;4904313;28;96890;-45
2022/10/20 02:44:54;;;;;;;1.67;1.40;;;;;;;8.86;60.76;101995.28;4905997;28;112889;-45
2022/10/20 02:47:21;;;;;;;4.30;1.20;;;;;;;8.85;60.58;101993.75;4908601;28;97893;-47
2022/10/20 02:49:47;;;;;;;1.23;1.17;;;;;;;8.78;60.65;102015.97;4908460;28;98026;-46
2022/10/20 02:52:12;;;;;;;3.27;1.47;;;;;;;8.82;60.48;101995.41;4905622;28;97081;-44
2022/10/20 02:54:37;;;;;;;1.80;1.60;;;;;;;8.83;60.53;101985.19;4907093;28;113973;-46
2022/10/20 02:57:03;;;;;;;1.50;1.40;;;;;;;8.82;60.59;101972.72;4906143;28;97248;-46
2022/10/20 02:59:28;;;;;;;2.67;1.53;;;;;;;8.81;60.40;101966.44;4908307;28;97291;-46
2022/10/20 03:01:54;;;;;;;3.37;1.13;;;;;;;8.73;60.31;101962.44;4909245;28;97386;-45
2022/10/20 03:04:19;;;;;;;2.23;1.20;;;;;;;8.68;60.50;101973.22;4903387;28;96628;-45
2022/10/20 03:06:44;;;;;;;2.13;1.00;;;;;;;8.66;60.53;101970.91;4902475;28;97178;-45
2022/10/20 03:09:10;;;;;;;1.20;0.90;;;;;;;8.62;60.45;101970.28;4903889;28;97043;-47
2022/10/20 03:11:35;;;;;;;1.40;1.30;;;;;;;8.56;60.44;101955.59;4901887;28;102191;-47
2022/10/20 03:14:00;;;;;;;2.87;1.10;;;;;;;8.56;60.71;101950.09;4901295;28;110726;-46
2022/10/20 03:16:26;;;;;;;2.33;1.40;;;;;;;8.54;60.61;101954.53;4904388;28;96924;-45
2022/10/20 03:18:52;;;;;;;1.13;1.03;;;;;;;8.48;60.56;101948.84;4906294;28;96785;-45
2022/10/20 03:21:17;;;;;;;1.30;1.20;;;;;;;8.45;60.63;101946.22;4905923;28;97113;-47
2022/10/20 03:23:42;;;;;;;1.40;1.30;;;;;;;8.46;60.86;101961.47;4904908;28;97265;-45
2022/10/20 03:26:10;;;;;;;1.57;0.83;;;;;;;8.46;60.80;101959.50;4904283;28;110964;-44
2022/10/20 03:28:36;;;;;;;13.20;0.90;;;;;;;8.48;60.34;101962.53;4905141;28;97174;-45
2022/10/20 03:31:02;;;;;;;1.00;1.00;;;;;;;8.48;60.73;101951.56;4903721;28;98828;-46
2022/10/20 03:33:27;;;;;;;1.00;0.90;;;;;;;8.48;60.78;101962.53;4905625;28;97085;-45
2022/10/20 03:35:52;;;;;;;4.50;1.23;;;;;;;8.46;60.69;101951.25;4905192;28;97435;-45
2022/10/20 03:38:18;;;;;;;1.53;1.27;;;;;;;8.44;60.51;101950.94;4901941;28;98511;-46
2022/10/20 03:40:43;;;;;;;3.37;1.13;;;;;;;8.45;60.75;101957.19;4901771;28;97313;-46
2022/10/20 03:43:08;;;;;;;0.93;0.93;;;;;;;8.40;60.52;101953.06;4903196;28;112125;-46
2022/10/20 03:45:34;;;;;;;1.20;1.10;;;;;;;8.35;60.54;101950.09;4903395;28;97342;-46
2022/10/20 03:47:59;;;;;;;2.20;1.07;;;;;;;8.29;60.65;101950.69;4897875;28;96953;-46
2022/10/20 03:50:25;;;;;;;1.67;1.10;;;;;;;8.28;60.82;101945.63;4896091;28;102231;-46
2022/10/20 03:52:50;;;;;;;1.30;1.10;;;;;;;8.24;60.70;101939.47;4897320;28;98559;-45
2022/10/20 03:55:17;;;;;;;1.40;1.30;;;;;;;8.18;60.61;101941.25;4899820;28;103125;-44
2022/10/20 03:57:42;;;;;;;3.23;0.80;;;;;;;8.14;60.79;101935.13;4903892;28;97032;-45
2022/10/20 04:00:09;;;;;;;1.10;1.00;;;;;;;8.11;60.75;101928.56;4900019;28;97275;-47
2022/10/20 04:02:37;;;;;;;1.50;1.40;;;;;;;8.11;60.97;101930.53;4903974;28;97722;-49
2022/10/20 04:05:03;;;;;;;1.30;1.20;;;;;;;8.09;60.72;101932.94;4904205;28;97027;-45
2022/10/20 04:07:29;;;;;;;3.23;1.30;;;;;;;8.06;60.96;101934.59;4898880;28;97416;-45
2022/10/20 04:09:54;;;;;;;2.13;0.80;;;;;;;8.03;60.75;101929.25;4905832;28;97504;-46
2022/10/20 04:12:20;;;;;;;2.20;1.13;;;;;;;8.00;61.06;101921.91;4903171;28;97119;-47
2022/10/20 04:14:46;;;;;;;2.50;0.87;;;;;;;7.98;61.14;101922.34;4901494;28;97477;-46
2022/10/20 04:17:11;;;;;;;1.43;1.07;;;;;;;7.95;60.80;101922.47;4900207;28;97403;-44
2022/10/20 04:19:37;;;;;;;3.67;1.20;;;;;;;7.92;60.97;101915.91;4902763;28;116611;-45
2022/10/20 04:22:02;;;;;;;1.87;1.40;;;;;;;7.88;61.18;101903.53;4905405;28;99389;-46
2022/10/20 04:24:27;;;;;;;0.87;0.87;;;;;;;7.86;61.29;101895.00;4903400;28;97016;-45
2022/10/20 04:26:53;;;;;;;1.73;1.20;;;;;;;7.85;61.37;101898.94;4902448;28;96857;-45
2022/10/20 04:29:18;;;;;;;1.70;1.60;;;;;;;7.84;61.07;101900.16;4902446;28;112491;-44
2022/10/20 04:31:43;;;;;;;1.50;1.40;;;;;;;7.84;61.44;101898.16;4902989;28;97456;-45
2022/10/20 04:34:09;;;;;;;5.20;1.30;;;;;;;7.87;61.34;101888.28;4906334;28;110793;-44
2022/10/20 04:36:34;;;;;;;1.73;1.40;;;;;;;7.88;61.34;101889.84;4902197;28;97117;-46
2022/10/20 04:38:59;;;;;;;1.40;1.30;;;;;;;7.88;61.27;101870.66;4901343;28;110950;-47
2022/10/20 04:41:25;;;;;;;1.07;1.03;;;;;;;7.86;61.39;101862.88;4904580;28;97357;-48
2022/10/20 04:43:51;;;;;;;1.80;1.43;;;;;;;7.86;61.38;101851.94;4901978;28;100239;-45
2022/10/20 04:46:17;;;;;;;1.67;1.33;;;;;;;7.87;61.49;101849.94;4904108;28;97263;-44
2022/10/20 04:48:45;;;;;;;1.53;1.43;;;;;;;7.85;61.61;101838.66;4899697;28;96929;-46
2022/10/20 04:51:13;;;;;;;1.87;1.77;;;;;;;7.84;61.45;101829.66;4903835;28;97312;-46
2022/10/20 04:53:39;;;;;;;1.53;1.43;;;;;;;7.86;61.73;101826.50;4902170;28;97394;-46
2022/10/20 04:56:06;;;;;;;2.13;2.03;;;;;;;7.85;61.63;101833.19;4908942;28;97187;-45
2022/10/20 04:58:32;;;;;;;1.33;1.30;;;;;;;7.85;61.82;101836.69;4903704;28;97461;-45
2022/10/20 05:01:08;;;;;;;1.80;1.70;;;;;;;7.88;62.25;101819.38;4907184;28;97494;-46
2022/10/20 05:03:35;;;;;;;3.17;1.70;;;;;;;7.91;62.03;101815.72;4904321;28;97318;-47
2022/10/20 05:06:15;;;;;;;5.50;1.87;;;;;;;7.94;62.57;101820.31;4907696;28;97032;-45
2022/10/20 05:08:42;;;;;;;10.07;2.13;;;;;;;7.96;62.14;101809.69;4907811;28;97159;-44
2022/10/20 05:11:08;;;;;;;1.70;1.60;;;;;;;7.98;61.78;101811.97;4903913;28;97963;-44
2022/10/20 05:13:34;;;;;;;4.50;1.70;;;;;;;8.01;61.88;101811.09;4905850;28;97728;-48
2022/10/20 05:15:59;;;;;;;2.20;2.00;;;;;;;8.06;61.90;101808.53;4905636;28;96833;-47
2022/10/20 05:18:25;;;;;;;2.17;2.00;;;;;;;8.08;61.77;101795.13;4901518;28;97419;-45
2022/10/20 05:20:50;;;;;;;2.57;2.10;;;;;;;8.10;61.86;101794.72;4906127;28;97276;-45
2022/10/20 05:23:16;;;;;;;2.00;1.90;;;;;;;8.10;61.92;101806.41;4903919;28;117681;-46
2022/10/20 05:25:41;;;;;;;3.23;1.67;;;;;;;8.15;61.97;101794.13;4902391;28;96873;-45
2022/10/20 05:28:06;;;;;;;2.70;2.43;;;;;;;8.15;61.82;101788.63;4904825;28;96951;-48
2022/10/20 05:30:35;;;;;;;3.90;1.70;;;;;;;8.14;61.74;101787.88;4905648;28;102094;-45
2022/10/20 05:33:01;;;;;;;1.33;1.23;;;;;;;8.17;61.73;101797.94;4907116;28;96909;-45
2022/10/20 05:35:27;;;;;;;2.70;2.03;;;;;;;8.21;61.72;101784.13;4906076;28;96991;-46
2022/10/20 05:37:53;;;;;;;1.50;1.40;;;;;;;8.21;61.47;101781.38;4906947;28;96801;-46
2022/10/20 05:40:18;;;;;;;1.93;1.73;;;;;;;8.19;61.67;101781.06;4900379;28;96958;-47
2022/10/20 05:42:43;;;;;;;1.60;1.50;;;;;;;8.20;61.75;101779.84;4904865;28;96757;-45
2022/10/20 05:45:09;;;;;;;2.13;1.50;;;;;;;8.19;61.58;101781.06;4904659;28;97065;-45
2022/10/20 05:47:34;;;;;;;3.63;1.60;;;;;;;8.17;61.55;101775.25;4907084;28;96995;-46
2022/10/20 05:49:59;;;;;;;2.17;1.80;;;;;;;8.15;61.84;101783.91;4906994;28;96795;-47
2022/10/20 05:52:25;;;;;;;1.80;1.70;;;;;;;8.13;61.64;101774.63;4905009;28;97575;-46
2022/10/20 05:54:50;;;;;;;2.50;1.60;;;;;;;8.14;61.65;101763.22;4907503;28;97020;-45
2022/10/20 05:57:16;;;;;;;1.93;1.80;;;;;;;8.17;61.64;101775.25;4907012;28;97219;-45
2022/10/20 05:59:41;;;;;;;2.93;1.63;;;;;;;8.17;61.88;101767.03;4902096;28;99715;-45
2022/10/20 06:02:09;;;;;;;1.90;1.80;;;;;;;8.15;61.61;101764.72;4904443;28;104080;-46
2022/10/20 06:04:34;;;;;;;1.40;1.30;;;;;;;8.16;61.74;101766.28;4906696;28;97245;-46
2022/10/20 06:07:00;;;;;;;2.80;1.67;;;;;;;8.17;61.74;101767.78;4905684;28;97204;-46
2022/10/20 06:09:25;;;;;;;4.43;1.37;;;;;;;8.22;61.94;101759.00;4904247;28;97627;-45
2022/10/20 06:11:51;;;;;;;1.60;1.50;;;;;;;8.25;61.58;101751.84;4903005;28;97408;-46
2022/10/20 06:14:17;;;;;;;1.93;1.80;;;;;;;8.24;61.63;101755.78;4904921;28;97312;-45
2022/10/20 06:16:43;;;;;;;1.60;1.50;;;;;;;8.26;61.75;101753.41;4906002;28;97222;-44
2022/10/20 06:19:09;;;;;;;2.80;1.60;;;;;;;8.29;61.96;101755.25;4903122;28;96909;-46
2022/10/20 06:21:36;;;;;;;2.13;1.73;;;;;;;8.29;61.87;101766.22;4900880;28;97408;-45
2022/10/20 06:24:04;;;;;;;2.00;1.77;;;;;;;8.35;62.11;101769.91;4905826;28;97328;-46
2022/10/20 06:26:37;;;;;;;4.97;1.40;;;;;;;8.41;62.19;101772.84;4906438;28;96960;-45
2022/10/20 06:29:04;;;;;;;1.67;1.50;;;;;;;8.48;62.24;101767.81;4900826;28;97495;-45
2022/10/20 06:31:37;;;;;;;1.90;1.80;;;;;;;8.53;62.20;101769.22;4898121;28;97556;-47
2022/10/20 06:34:05;;;;;;;1.97;1.50;;;;;;;8.59;62.09;101764.66;4906803;28;99050;-46
2022/10/20 06:36:34;;;;;;;1.40;1.30;;;;;;;8.64;62.21;101759.38;4909027;28;97056;-45
2022/10/20 06:39:00;;;;;;;1.63;1.53;;;;;;;8.70;62.24;101762.28;4899825;28;97492;-44
2022/10/20 06:41:27;;;;;;;2.83;2.20;;;;;;;8.73;62.16;101767.63;4904140;28;97529;-44
2022/10/20 06:43:57;;;;;;;1.10;1.10;;;;;;;8.81;62.32;101771.63;4906013;28;97049;-46
2022/10/20 06:46:23;;;;;;;1.80;1.70;;;;;;;8.85;62.04;101772.25;4907595;28;96990;-45
2022/10/20 06:48:48;;;;;;;3.77;1.47;;;;;;;8.88;62.27;101779.56;4904249;28;97338;-46
2022/10/20 06:51:18;;;;;;;1.80;1.70;;;;;;;8.91;62.27;101777.91;4905443;28;97152;-45
2022/10/20 06:53:44;;;;;;;4.30;1.40;;;;;;;8.98;62.12;101772.13;4903884;28;97351;-45
2022/10/20 06:56:12;;;;;;;2.67;1.60;;;;;;;9.01;62.12;101766.50;4903667;28;97225;-46
2022/10/20 06:58:39;;;;;;;5.53;2.00;;;;;;;9.07;62.26;101767.44;4904361;28;97284;-46
2022/10/20 07:01:06;;;;;;;1.60;1.50;;;;;;;9.12;62.25;101757.06;4903990;28;97460;-44
2022/10/20 07:03:34;;;;;;;4.70;1.50;;;;;;;9.17;62.28;101748.22;4901323;28;97651;-44
2022/10/20 07:06:00;;;;;;;1.70;1.60;;;;;;;9.19;62.17;101754.03;4905597;28;97043;-45
2022/10/20 07:08:30;;;;;;;1.50;1.37;;;;;;;9.24;62.42;101751.44;4906957;28;97623;-45
2022/10/20 07:11:01;;;;;;;2.67;1.40;;;;;;;9.30;62.35;101746.09;4902111;28;97336;-45
2022/10/20 07:13:28;;;;;;;1.77;1.67;;;;;;;9.35;62.22;101746.25;4906038;28;96724;-45
2022/10/20 07:15:54;;;;;;;1.60;1.50;;;;;;;9.39;62.29;101743.38;4898190;28;96834;-46
2022/10/20 07:18:20;;;;;;;1.70;1.60;;;;;;;9.43;62.30;101741.22;4903713;28;98610;-45
2022/10/20 07:20:45;;;;;;;2.10;2.00;;;;;;;9.43;62.36;101730.25;4904476;28;97190;-44
2022/10/20 07:23:11;;;;;;;2.40;1.60;;;;;;;9.48;62.30;101733.13;4904744;28;97188;-46
2022/10/20 07:25:36;;;;;;;2.77;2.53;;;;;;;9.53;62.23;101723.53;4903964;28;96902;-45
2022/10/20 07:28:01;;;;;;;2.50;1.47;;;;;;;9.60;62.20;101731.47;4904748;28;109904;-45
2022/10/20 07:30:27;;;;;;;2.13;1.43;;;;;;;9.65;62.17;101722.63;4904346;28;98112;-45
2022/10/20 07:32:52;;;;;;;2.07;1.97;;;;;;;9.72;62.24;101727.78;4904731;28;97377;-46
2022/10/20 07:35:17;;;;;;;1.77;1.67;;;;;;;9.76;62.42;101707.16;4906094;28;96747;-47
2022/10/20 07:37:43;;;;;;;1.80;1.70;;;;;;;9.83;62.19;101711.56;4905821;28;97313;-44
2022/10/20 07:40:09;;;;;;;1.90;1.80;;;;;;;9.89;62.18;101712.50;4903417;28;96877;-48
2022/10/20 07:42:34;;;;;;;2.17;2.07;;;;;;;9.93;62.26;101706.81;4905149;28;96752;-45
2022/10/20 07:44:59;;;;;;;2.10;1.90;;;;;;;10.00;62.02;101699.03;4901403;28;105941;-44
2022/10/20 07:47:25;;;;;;;1.60;1.50;;;;;;;10.07;62.00;101704.19;4902532;28;97007;-46
2022/10/20 07:49:50;;;;;;;5.37;1.83;;;;;;;10.10;62.10;101700.53;4902171;28;110683;-45
2022/10/20 07:52:15;;;;;;;3.90;2.10;;;;;;;10.17;62.02;101693.97;4903867;28;108843;-45
2022/10/20 07:54:41;;;;;;;2.87;2.20;;;;;;;10.20;61.80;101690.28;4903691;28;97219;-46
2022/10/20 07:57:06;;;;;;;2.20;2.00;;;;;;;10.27;61.94;101698.97;4899907;28;114125;-45
2022/10/20 07:59:31;;;;;;;1.87;1.77;;;;;;;10.30;61.85;101692.53;4902736;28;97610;-45
2022/10/20 08:01:57;;;;;;;2.10;2.00;;;;;;;10.35;61.96;101694.63;4903272;28;96888;-47
2022/10/20 08:04:22;;;;;;;2.20;2.00;;;;;;;10.45;61.81;101692.63;4903150;28;102456;-46
2022/10/20 08:06:48;;;;;;;4.67;1.70;;;;;;;10.50;61.82;101689.25;4905400;28;98299;-46
2022/10/20 08:09:13;;;;;;;2.27;2.10;;;;;;;10.57;61.81;101685.38;4907295;28;98731;-45
2022/10/20 08:11:38;;;;;;;2.70;2.17;;;;;;;10.59;61.57;101674.66;4896583;28;99227;-47
2022/10/20 08:14:03;;;;;;;2.20;1.67;;;;;;;10.63;61.84;101684.28;4903681;28;107504;-47
2022/10/20 08:16:29;;;;;;;2.43;2.10;;;;;;;10.71;61.69;101662.66;4904317;28;97315;-44
2022/10/20 08:18:54;;;;;;;2.90;2.30;;;;;;;10.81;61.47;101662.13;4903546;28;97356;-46
2022/10/20 08:21:21;;;;;;;6.33;2.57;;;;;;;10.87;61.55;101662.25;4905554;28;104529;-45
2022/10/20 08:23:48;;;;;;;1.80;1.70;;;;;;;10.95;61.40;101666.16;4905351;28;96966;-48
2022/10/20 08:26:22;;;;;;;2.20;2.00;;;;;;;11.06;61.46;101669.16;4904791;28;97978;-45
2022/10/20 08:28:48;;;;;;;2.03;1.90;;;;;;;11.12;61.20;101667.25;4902034;28;97073;-47
2022/10/20 08:31:14;;;;;;;5.47;1.90;;;;;;;11.17;61.18;101650.09;4904727;28;97039;-45
2022/10/20 08:33:39;;;;;;;2.10;2.00;;;;;;;11.22;61.21;101652.19;4903291;28;96987;-44
2022/10/20 08:36:08;;;;;;;2.50;1.73;;;;;;;11.28;61.14;101656.59;4902772;28;97270;-47
2022/10/20 08:38:35;;;;;;;2.50;2.30;;;;;;;11.37;61.16;101652.97;4902910;28;97294;-48
2022/10/20 08:41:01;;;;;;;2.73;1.60;;;;;;;11.46;61.10;101660.41;4901086;28;96693;-46
2022/10/20 08:43:29;;;;;;;2.93;2.00;;;;;;;11.55;60.98;101655.56;4902369;28;97434;-45
2022/10/20 08:45:54;;;;;;;2.33;2.20;;;;;;;11.62;60.79;101651.69;4902220;28;98540;-49
2022/10/20 08:48:25;;;;;;;2.17;2.07;;;;;;;11.71;60.99;101657.09;4903421;28;99752;-46
2022/10/20 08:50:52;;;;;;;2.57;2.10;;;;;;;11.73;60.88;101638.13;4902975;28;97435;-45
2022/10/20 08:53:21;;;;;;;5.10;2.40;;;;;;;11.76;61.01;101643.44;4900034;28;97219;-44
2022/10/20 08:55:47;;;;;;;2.07;1.93;;;;;;;11.82;60.79;101635.22;4903009;28;99305;-45
2022/10/20 08:58:23;;;;;;;2.53;2.33;;;;;;;11.86;60.67;101631.06;4902328;28;96830;-48
2022/10/20 09:00:55;;;;;;;2.50;1.73;;;;;;;11.90;60.87;101634.38;4904184;28;97056;-48
2022/10/20 09:03:23;;;;;;;2.23;1.60;;;;;;;11.99;60.78;101626.00;4904965;28;96840;-46
2022/10/20 09:05:55;;;;;;;2.37;1.90;;;;;;;12.08;60.60;101613.34;4904214;28;97278;-45
2022/10/20 09:08:24;;;;;;;2.10;1.33;;;;;;;12.15;60.36;101623.97;4903426;28;98369;-46
2022/10/20 09:10:52;;;;;;;2.30;2.20;;;;;;;12.21;60.53;101595.22;4903366;28;97187;-46
2022/10/20 09:13:28;;;;;;;1.90;1.80;;;;;;;12.25;60.53;101614.34;4902606;28;96959;-46
2022/10/20 09:16:07;;;;;;;2.23;2.10;;;;;;;12.36;60.09;101628.31;4900021;28;103513;-50
2022/10/20 09:18:33;;;;;;;2.20;2.00;;;;;;;12.39;60.21;101619.81;4900095;28;97033;-45
2022/10/20 09:21:12;;;;;;;2.03;1.83;;;;;;;12.51;60.19;101612.44;4900902;28;96943;-47
2022/10/20 09:23:43;;;;;;;3.27;2.50;;;;;;;12.59;59.89;101613.53;4903516;28;97181;-47
2022/10/20 09:26:18;;;;;;;2.20;2.10;;;;;;;12.65;60.00;101600.56;4899447;28;97035;-45
2022/10/20 09:28:48;;;;;;;2.73;2.20;;;;;;;12.72;59.99;101605.69;4899197;28;97472;-45
2022/10/20 09:31:32;;;;;;;3.80;2.03;;;;;;;12.87;59.97;101614.66;4902750;28;97044;-45
2022/10/20 09:33:58;;;;;;;1.83;1.70;;;;;;;12.97;59.69;101606.97;4898172;28;97207;-45
2022/10/20 09:36:28;;;;;;;1.90;1.70;;;;;;;13.11;59.43;101595.09;4899557;28;97290;-46
2022/10/20 09:38:54;;;;;;;2.73;2.20;;;;;;;13.15;59.49;101596.41;4902657;28;97985;-49
2022/10/20 09:41:27;;;;;;;2.00;1.90;;;;;;;13.27;59.13;101595.28;4903883;28;96997;-47
2022/10/20 09:43:59;;;;;;;2.13;1.50;;;;;;;13.36;59.20;101602.63;4901833;28;97062;-45
2022/10/20 09:46:29;;;;;;;3.57;2.00;;;;;;;13.41;59.08;101588.13;4907932;28;98692;-44
2022/10/20 09:48:55;;;;;;;3.37;1.87;;;;;;;13.51;58.95;101581.16;4907317;28;97023;-46
2022/10/20 09:51:23;;;;;;;2.20;1.83;;;;;;;13.57;58.90;101579.19;4905201;28;96958;-45
2022/10/20 09:54:03;;;;;;;2.00;1.80;;;;;;;13.65;58.31;101576.75;4904616;28;97017;-48
2022/10/20 09:56:37;;;;;;;2.20;1.50;;;;;;;13.70;58.63;101573.25;4905714;28;100608;-49
2022/10/20 09:59:06;;;;;;;2.20;2.03;;;;;;;13.81;58.71;101582.41;4901251;28;97175;-45
2022/10/20 10:01:32;;;;;;;1.73;1.63;;;;;;;13.91;58.64;101567.13;4904269;28;96867;-44
2022/10/20 10:04:00;;;;;;;1.87;1.77;;;;;;;14.00;58.55;101557.91;4901303;28;96944;-44
2022/10/20 10:06:26;;;;;;;3.27;2.17;;;;;;;14.07;58.21;101549.88;4903824;28;97404;-47
2022/10/20 10:08:51;;;;;;;2.20;2.10;;;;;;;14.11;58.28;101553.16;4903962;28;98345;-46
2022/10/20 10:11:20;;;;;;;1.77;1.20;;;;;;;14.11;58.15;101553.16;4904264;28;97242;-46
2022/10/20 10:13:48;;;;;;;2.10;1.80;;;;;;;14.16;58.11;101557.22;4902429;28;96965;-45
2022/10/20 10:16:18;;;;;;;5.93;1.90;;;;;;;14.17;57.98;101553.97;4902501;28;97491;-48
2022/10/20 10:18:54;;;;;;;1.70;1.60;;;;;;;14.18;58.04;101544.41;4904825;28;102389;-47
2022/10/20 10:21:20;;;;;;;4.30;1.80;;;;;;;14.25;58.21;101545.94;4903640;28;97281;-46
2022/10/20 10:24:03;;;;;;;1.60;1.50;;;;;;;14.31;57.34;101543.25;4904131;28;97155;-46
2022/10/20 10:26:51;;;;;;;1.90;1.53;;;;;;;14.38;57.55;101546.28;4902698;28;100581;-45
2022/10/20 10:29:22;;;;;;;1.70;1.60;;;;;;;14.42;57.98;101535.72;4904155;28;97474;-46
2022/10/20 10:32:18;;;;;;;1.90;1.77;;;;;;;14.49;56.74;101520.66;4901686;28;96995;-46
2022/10/20 10:35:03;;;;;;;2.30;1.73;;;;;;;14.53;57.48;101513.63;4902578;28;97200;-47
2022/10/20 10:37:30;;;;;;;1.60;1.50;;;;;;;14.61;57.94;101520.19;4902784;28;102427;-46
2022/10/20 10:39:55;;;;;;;1.60;1.50;;;;;;;14.67;57.83;101506.38;4902217;28;97099;-50
2022/10/20 10:42:42;;;;;;;1.60;1.50;;;;;;;14.72;57.56;101511.91;4902868;28;97351;-46
2022/10/20 10:45:29;;;;;;;2.17;2.00;;;;;;;14.81;57.17;101514.44;4902929;28;97138;-50
2022/10/20 10:48:27;;;;;;;2.37;1.70;;;;;;;14.89;56.79;101520.28;4901676;28;101740;-46
2022/10/20 10:50:58;;;;;;;2.53;1.60;;;;;;;14.95;57.24;101499.63;4895639;28;100756;-50
2022/10/20 10:54:04;;;;;;;1.70;1.60;;;;;;;15.00;56.40;101484.25;4904169;28;97372;-49
2022/10/20 10:56:43;;;;;;;1.67;1.60;;;;;;;15.09;56.56;101492.34;4823781;29;97791;-48
2022/10/20 10:59:26;;;;;;;1.43;1.33;;;;;;;15.13;56.53;101464.38;4838846;28;97254;-47
2022/10/20 11:02:10;;;;;;;2.00;1.73;;;;;;;15.18;56.68;101469.16;4883605;28;102982;-46
2022/10/20 11:04:41;;;;;;;1.50;1.50;;;;;;;15.22;56.74;101470.41;4903668;28;97694;-49
2022/10/20 11:07:54;;;;;;;1.67;1.57;;;;;;;15.20;56.01;101458.31;4901505;28;96887;-45
2022/10/20 11:10:39;;;;;;;1.83;1.73;;;;;;;15.22;56.54;101461.34;4843613;28;101910;-45
2022/10/20 11:13:44;;;;;;;2.53;1.93;;;;;;;15.14;56.29;101463.09;4903557;28;102813;-47
2022/10/20 11:16:12;;;;;;;5.73;2.30;;;;;;;15.21;56.87;101454.28;4897500;28;97378;-47
2022/10/20 11:18:53;;;;;;;2.20;2.10;;;;;;;15.35;56.62;101465.13;4900243;28;97402;-45
2022/10/20 11:21:29;;;;;;;2.17;2.07;;;;;;;15.54;56.79;101470.91;4902952;28;101841;-47
2022/10/20 11:24:04;;;;;;;2.50;1.87;;;;;;;15.68;56.55;101459.53;4902937;28;97529;-46
2022/10/20 11:26:43;;;;;;;2.60;2.40;;;;;;;15.77;56.16;101453.72;4898914;28;97187;-46
2022/10/20 11:29:31;;;;;;;2.23;2.03;;;;;;;15.76;55.13;101432.03;4900569;28;97590;-45
2022/10/20 11:32:07;;;;;;;1.80;1.70;;;;;;;15.77;56.04;101422.41;4902602;28;101893;-46
2022/10/20 11:34:37;;;;;;;3.67;2.10;;;;;;;15.75;56.18;101414.63;4901336;28;97684;-45
2022/10/20 11:37:02;;;;;;;2.40;2.30;;;;;;;15.84;56.09;101410.81;4905202;28;97798;-46
2022/10/20 11:40:13;;;;;;;2.57;2.37;;;;;;;15.95;54.82;101394.09;4903377;28;97146;-45
2022/10/20 11:43:03;;;;;;;2.87;2.43;;;;;;;16.12;55.23;101394.78;4900604;28;102893;-45